createdAt,value
2023-04-12T03:35:16.977Z,94942.2
2023-04-12T03:36:19.226Z,94945.6
2023-04-12T03:37:21.324Z,94944.7
2023-04-12T03:38:23.325Z,94941.4
2023-04-12T03:39:25.040Z,94943.6
2023-04-12T03:40:26.927Z,94945.9
2023-04-12T03:41:29.143Z,94946.6
2023-04-12T05:27:40.129Z,94824.9
2023-04-12T05:28:42.233Z,94823.7
2023-04-12T05:29:44.387Z,94821.6
2023-04-12T06:27:39.786Z,94761.5
2023-04-12T06:28:41.810Z,94765.3
2023-04-12T06:29:43.704Z,94763.8
2023-04-12T06:30:45.606Z,94760.6
2023-04-12T08:07:33.924Z,94661.2
2023-04-12T08:08:35.958Z,94658.5
2023-04-12T08:09:37.863Z,94656.6
2023-04-12T09:03:22.108Z,94550.1
2023-04-12T09:04:25.247Z,94554.5
2023-04-12T09:05:27.311Z,94551.7
2023-04-12T09:43:36.585Z,94499.8
2023-04-12T12:11:20.369Z,94332.8
2023-04-12T12:12:22.314Z,94335.8
2023-04-12T12:13:24.526Z,94340.9
2023-04-12T12:14:26.468Z,94345.6
2023-04-12T12:15:28.802Z,94342.3
2023-04-12T12:16:31.514Z,94332.8
2023-04-12T12:17:33.696Z,94323.7
2023-04-12T12:18:35.872Z,94323.9
2023-04-12T12:19:38.011Z,94318.7
2023-04-12T12:20:40.090Z,94313.8
2023-04-12T12:21:42.191Z,94317.9
2023-04-12T12:22:44.312Z,94323
2023-04-12T12:23:46.414Z,94329.6
2023-04-12T12:24:48.506Z,94332.8
2023-04-12T12:25:50.754Z,94329.9
2023-04-12T12:26:53.096Z,94330.4
2023-04-12T12:27:55.454Z,94328.5
2023-04-12T12:28:57.742Z,94327.4
2023-04-12T12:29:59.973Z,94322.2
2023-04-12T12:31:02.065Z,94326.5
2023-04-12T12:32:04.227Z,94334.5
2023-04-12T12:33:06.361Z,94337.6
2023-04-12T12:34:11.395Z,94331.8
2023-04-12T12:35:13.980Z,94328.6
2023-04-12T12:36:16.249Z,94327.8
2023-04-12T12:37:18.505Z,94319.8
2023-04-12T12:38:20.669Z,94315.8
2023-04-12T12:39:22.770Z,94314
2023-04-12T12:40:24.882Z,94315.6
2023-04-12T12:41:26.756Z,94313.1
2023-04-12T12:42:28.703Z,94311
2023-04-12T12:43:30.961Z,94302.6
2023-04-12T12:44:36.400Z,94304.8
2023-04-12T12:45:40.124Z,94303.5
2023-04-12T12:59:10.154Z,94311.5
2023-04-12T15:25:30.848Z,94200
2023-04-12T15:26:32.819Z,94195.7
2023-04-12T15:27:34.946Z,94199.9
2023-04-12T19:16:20.883Z,94263.3
2023-04-12T19:17:23.052Z,94263.5
2023-04-12T20:34:35.176Z,94304.8
2023-04-12T20:35:37.326Z,94305.6
2023-04-12T20:36:39.244Z,94308
2023-04-12T20:37:41.170Z,94306.4
2023-04-12T20:38:43.069Z,94312.7
2023-04-12T20:39:44.983Z,94313.7
2023-04-12T20:40:46.896Z,94317.3
2023-04-12T20:41:48.850Z,94316.3
2023-04-12T20:42:51.006Z,94314.7
2023-04-12T20:43:53.144Z,94318.2
2023-04-12T20:44:55.075Z,94321.6
2023-04-12T20:45:57.130Z,94324
2023-04-12T22:39:13.736Z,94430
2023-04-12T22:40:15.661Z,94427.1
2023-04-12T22:41:17.514Z,94428.1
